To NAV CANADA Home Page Login to a new session Search on AWWS site Feedback and Comments Disclaimer Vers la page française équivalente Tips FAQ What's new on the site To the Forecasts and Observations / NOTAM section To "File a Flight Plan" website Publications and other links Update of the User's profile FIC Telephone Numbers My Weather Data Folder Route Weather Data Regional Weather Data Local Weather Data To the Forecasts and Observations / NOTAM section
Request Generated 10/17/2017 at 01:55:14 UTC . Weather information available at that time is displayed.

METAR/TAF

HOPE/BC    (show WxCam)

SPECI CYHE 170109Z AUTO 27006KT 260V010 9SM -RA BKN025 OVC049 11/09
A3008 RMK SLP189=
METAR CYHE 170100Z AUTO 30009G15KT 260V330 9SM -RA BKN023 BKN027
BKN034 OVC049 11/09 A3009 RMK SLP190=
SPECI CYHE 170003Z AUTO 28009G16KT 240V310 9SM -RA FEW010 BKN021
OVC055 11/09 A3012 RMK SLP200=
METAR CYHE 170000Z AUTO 27009G17KT 240V320 9SM -RA FEW010 SCT021
OVC055 11/09 A3012 RMK SLP200=
METAR CYHE 162300Z AUTO 28009G18KT 230V310 9SM RA OVC065 11/09 A3013
RMK SLP204=

CYHE - No TAF is issued for this station

Your time UTC time
Weather data provided by Environment Canada and NAV CANADA